La Farge, WI (54639)

5:05 AM CDT on July 28, 2014 (GMT -0500)
Viroqua (KY51) Elev 1293 ft | 43.58 °N, 90.90 °W | Change Station

Current weather conditions updated 10 minutes ago

Clear
Clear
53 °F
Feels Like 53 °F
N
7
Wind Variable Wind from NNW

Today is forecast to be nearly the same temperature as yesterday.

Today
High -- | Low -- °F
--% Chance of Precip.
Yesterday
High -- | Low -- °F
Precip. -- in
5:47 AM 8:29 PM
New Moon, 2% visible
Pressure 30.12 in
Visibility 10.0 miles
Clouds Clear
Dew Point 53 °F
Humidity 100%
Rainfall 0.00 in
Snow Depth Not available.
UV 0 out of 12
Pollen 7.10 out of 12
Air Quality Not available.
Flu Activity Not available.
METAR KY51 280955Z AUTO 34006KT 10SM CLR 12/12 A3012 RMK AO1 T01150115

More Conditions Fewer Conditions

Pressure 30.12 in
Visibility 10.0 miles
Clouds Clear
Dew Point 53 °F
Humidity 100%
Rainfall 0.00 in
Snow Depth Not available.
UV 0 out of 12
Pollen 7.10 out of 12
Air Quality Not available.
Flu Activity Not available.
METAR KY51 280955Z AUTO 34006KT 10SM CLR 12/12 A3012 RMK AO1 T01150115

More Conditions Fewer Conditions

10-Day Weather Forecast

Almanac

Astronomy

Jul. 28, 2014 Rise Set
Actual Time 5:47 AM CDT 8:29 PM CDT
Civil Twilight 5:14 AM CDT 9:02 PM CDT
Nautical Twilight 4:32 AM CDT 9:44 PM CDT
Astronomical Twilight 3:44 AM CDT 10:32 PM CDT
Moon 7:34 AM CDT 9:05 PM CDT
Length of Visible Light 15h 48m
Length of Day
14h 42m
Tomorrow will be 2m 10s shorter.
New Moon, 2% of the Moon is Illuminated
Today
New Moon
Aug 3
First Quarter
Aug 10
Full
Aug 17
Last Quarter
Aug 25
New

Today's Extremes

State Highs State Lows

Community

WunderPhotos

Upload Photos

1,738,289 photos uploaded!

Nearby

Snow Depth

Station Depth Elevation
No new snow has been reported.

Earthquake Activity

City Distance Mag. Time & Date
No recent earthquake activity has been reported nearby.
Minimum magnitude displayed is 2.5.

Coastal Water Temperatures

Place Temperature
No Stations Reporting

Nearby Weather Stations

Station Location Temp. Dew Point Humidity Wind Precip. Elev Updated Type
Hillsboro, Hillsboro, WI 52.9 °F 52 °F 98% North  at  0.0 mph 0.00 in / hr 958 ft 5:05 AM CDT Rapid Fire
Faith Farms Viroqua, Viroqua, WI 53.5 °F 51 °F 92% ENE  at  3.0 mph 0.00 in / hr 1217 ft 5:04 AM CDT Normal
Kendall, Wi., Kendall, WI 54.9 °F 51 °F 86% NW  at  5.8 mph 0.00 in / hr 1021 ft 5:05 AM CDT Rapid Fire
Richland Center, WI 55.3 °F 52 °F 88% North  at  0.0 mph 0.00 in / hr 741 ft 5:04 AM CDT Normal
Ash Creek, Richland Center, WI 53.7 °F 52 °F 93% NNE  at  1.0 mph 0.00 in / hr 732 ft 4:59 AM CDT Normal

Show More Stations Show Fewer Stations